sensor_id;sensor_type;location;lat;lon;timestamp;temperature;humidity
38568;DHT22;24338;48.280;10.970;2022-07-21T00:01:13;21.20;99.90
38568;DHT22;24338;48.280;10.970;2022-07-21T00:03:40;21.20;99.90
38568;DHT22;24338;48.280;10.970;2022-07-21T00:06:07;21.20;99.90
38568;DHT22;24338;48.280;10.970;2022-07-21T00:08:34;21.10;99.90
38568;DHT22;24338;48.280;10.970;2022-07-21T00:11:01;21.10;99.90
38568;DHT22;24338;48.280;10.970;2022-07-21T00:13:28;21.10;99.90
38568;DHT22;24338;48.280;10.970;2022-07-21T00:15:55;21.10;99.90
38568;DHT22;24338;48.280;10.970;2022-07-21T00:18:23;21.00;99.90
38568;DHT22;24338;48.280;10.970;2022-07-21T00:20:50;21.00;99.90
38568;DHT22;24338;48.280;10.970;2022-07-21T00:23:17;20.90;99.90
38568;DHT22;24338;48.280;10.970;2022-07-21T00:25:44;20.80;99.90
38568;DHT22;24338;48.280;10.970;2022-07-21T00:28:10;20.70;99.90
38568;DHT22;24338;48.280;10.970;2022-07-21T00:30:37;20.70;99.90
38568;DHT22;24338;48.280;10.970;2022-07-21T00:33:04;20.60;99.90
38568;DHT22;24338;48.280;10.970;2022-07-21T00:35:31;20.50;99.90
38568;DHT22;24338;48.280;10.970;2022-07-21T00:37:58;20.50;99.90
38568;DHT22;24338;48.280;10.970;2022-07-21T00:40:25;20.50;99.90
38568;DHT22;24338;48.280;10.970;2022-07-21T00:42:53;20.40;99.90
38568;DHT22;24338;48.280;10.970;2022-07-21T00:45:20;20.40;99.90
38568;DHT22;24338;48.280;10.970;2022-07-21T00:47:47;20.40;99.90
38568;DHT22;24338;48.280;10.970;2022-07-21T00:50:17;20.40;99.90
38568;DHT22;24338;48.280;10.970;2022-07-21T00:52:45;20.40;99.90
38568;DHT22;24338;48.280;10.970;2022-07-21T00:55:16;20.40;99.90
38568;DHT22;24338;48.280;10.970;2022-07-21T00:57:43;20.40;99.90
38568;DHT22;24338;48.280;10.970;2022-07-21T01:00:15;20.40;99.90
38568;DHT22;24338;48.280;10.970;2022-07-21T01:02:43;20.40;99.90
38568;DHT22;24338;48.280;10.970;2022-07-21T01:05:11;20.30;99.90
38568;DHT22;24338;48.280;10.970;2022-07-21T01:07:43;20.30;99.90
38568;DHT22;24338;48.280;10.970;2022-07-21T01:10:12;20.30;99.90
38568;DHT22;24338;48.280;10.970;2022-07-21T01:12:40;20.30;99.90
38568;DHT22;24338;48.280;10.970;2022-07-21T01:15:09;20.30;99.90
38568;DHT22;24338;48.280;10.970;2022-07-21T01:17:37;20.30;99.90
38568;DHT22;24338;48.280;10.970;2022-07-21T01:20:09;20.30;99.90
38568;DHT22;24338;48.280;10.970;2022-07-21T01:22:39;20.20;99.90
38568;DHT22;24338;48.280;10.970;2022-07-21T01:25:07;20.10;99.90
38568;DHT22;24338;48.280;10.970;2022-07-21T01:27:34;20.10;99.90
38568;DHT22;24338;48.280;10.970;2022-07-21T01:30:02;20.10;99.90
38568;DHT22;24338;48.280;10.970;2022-07-21T01:32:36;20.10;99.90
38568;DHT22;24338;48.280;10.970;2022-07-21T01:35:04;20.10;99.90
38568;DHT22;24338;48.280;10.970;2022-07-21T01:37:33;20.00;99.90
38568;DHT22;24338;48.280;10.970;2022-07-21T01:40:02;20.00;99.90
38568;DHT22;24338;48.280;10.970;2022-07-21T01:42:48;20.00;99.90
38568;DHT22;24338;48.280;10.970;2022-07-21T01:45:15;20.00;99.90
38568;DHT22;24338;48.280;10.970;2022-07-21T01:47:42;19.90;99.90
38568;DHT22;24338;48.280;10.970;2022-07-21T01:50:10;19.90;99.90
38568;DHT22;24338;48.280;10.970;2022-07-21T01:52:37;19.90;99.90
38568;DHT22;24338;48.280;10.970;2022-07-21T01:55:04;19.90;99.90
38568;DHT22;24338;48.280;10.970;2022-07-21T01:57:31;19.90;99.90
38568;DHT22;24338;48.280;10.970;2022-07-21T01:59:58;19.90;99.90
38568;DHT22;24338;48.280;10.970;2022-07-21T02:02:25;19.90;99.90
38568;DHT22;24338;48.280;10.970;2022-07-21T02:04:52;19.90;99.90
38568;DHT22;24338;48.280;10.970;2022-07-21T02:07:19;19.90;99.90
38568;DHT22;24338;48.280;10.970;2022-07-21T02:09:46;19.90;99.90
38568;DHT22;24338;48.280;10.970;2022-07-21T02:12:13;19.90;99.90
38568;DHT22;24338;48.280;10.970;2022-07-21T02:14:39;19.90;99.90
38568;DHT22;24338;48.280;10.970;2022-07-21T02:17:06;19.80;99.90
38568;DHT22;24338;48.280;10.970;2022-07-21T02:19:33;19.80;99.90
38568;DHT22;24338;48.280;10.970;2022-07-21T02:22:00;19.80;99.90
38568;DHT22;24338;48.280;10.970;2022-07-21T02:24:27;19.80;99.90
38568;DHT22;24338;48.280;10.970;2022-07-21T02:26:54;19.90;99.90
38568;DHT22;24338;48.280;10.970;2022-07-21T02:29:21;19.80;99.90
38568;DHT22;24338;48.280;10.970;2022-07-21T02:31:48;19.90;99.90
38568;DHT22;24338;48.280;10.970;2022-07-21T02:34:14;19.90;99.90
38568;DHT22;24338;48.280;10.970;2022-07-21T02:36:41;19.90;99.90
38568;DHT22;24338;48.280;10.970;2022-07-21T02:39:08;20.00;99.90
38568;DHT22;24338;48.280;10.970;2022-07-21T02:41:35;20.00;99.90
38568;DHT22;24338;48.280;10.970;2022-07-21T02:44:02;20.00;99.90
38568;DHT22;24338;48.280;10.970;2022-07-21T02:46:29;20.00;99.90
38568;DHT22;24338;48.280;10.970;2022-07-21T02:48:56;20.00;99.90
38568;DHT22;24338;48.280;10.970;2022-07-21T02:51:23;20.00;99.90
38568;DHT22;24338;48.280;10.970;2022-07-21T02:53:51;20.00;99.90
38568;DHT22;24338;48.280;10.970;2022-07-21T02:56:18;20.00;99.90
38568;DHT22;24338;48.280;10.970;2022-07-21T02:58:45;20.00;99.90
38568;DHT22;24338;48.280;10.970;2022-07-21T03:01:12;20.00;99.90
38568;DHT22;24338;48.280;10.970;2022-07-21T03:03:39;19.90;99.90
38568;DHT22;24338;48.280;10.970;2022-07-21T03:06:06;19.90;99.90
38568;DHT22;24338;48.280;10.970;2022-07-21T03:08:33;19.90;99.90
38568;DHT22;24338;48.280;10.970;2022-07-21T03:11:00;19.80;99.90
38568;DHT22;24338;48.280;10.970;2022-07-21T03:13:27;19.80;99.90
38568;DHT22;24338;48.280;10.970;2022-07-21T03:15:54;19.80;99.90
38568;DHT22;24338;48.280;10.970;2022-07-21T03:18:21;19.70;99.90
38568;DHT22;24338;48.280;10.970;2022-07-21T03:20:48;19.70;99.90
38568;DHT22;24338;48.280;10.970;2022-07-21T03:23:15;19.70;99.90
38568;DHT22;24338;48.280;10.970;2022-07-21T03:25:42;19.80;99.90
38568;DHT22;24338;48.280;10.970;2022-07-21T03:28:09;19.80;99.90
38568;DHT22;24338;48.280;10.970;2022-07-21T03:30:36;19.80;99.90
38568;DHT22;24338;48.280;10.970;2022-07-21T03:33:03;19.70;99.90
38568;DHT22;24338;48.280;10.970;2022-07-21T03:35:30;19.70;99.90
38568;DHT22;24338;48.280;10.970;2022-07-21T03:37:59;19.70;99.90
38568;DHT22;24338;48.280;10.970;2022-07-21T03:40:29;19.70;99.90
38568;DHT22;24338;48.280;10.970;2022-07-21T03:42:58;19.60;99.90
38568;DHT22;24338;48.280;10.970;2022-07-21T03:45:26;19.50;99.90
38568;DHT22;24338;48.280;10.970;2022-07-21T03:47:53;19.50;99.90
38568;DHT22;24338;48.280;10.970;2022-07-21T03:50:20;19.40;99.90
38568;DHT22;24338;48.280;10.970;2022-07-21T03:52:47;19.40;99.90
38568;DHT22;24338;48.280;10.970;2022-07-21T03:55:15;19.40;99.90
38568;DHT22;24338;48.280;10.970;2022-07-21T03:57:53;19.40;99.90
38568;DHT22;24338;48.280;10.970;2022-07-21T04:00:30;19.40;99.90
38568;DHT22;24338;48.280;10.970;2022-07-21T04:02:58;19.40;99.90
38568;DHT22;24338;48.280;10.970;2022-07-21T04:05:26;19.40;99.90
38568;DHT22;24338;48.280;10.970;2022-07-21T04:07:54;19.40;99.90
38568;DHT22;24338;48.280;10.970;2022-07-21T04:10:23;19.30;99.90
38568;DHT22;24338;48.280;10.970;2022-07-21T04:12:52;19.30;99.90
38568;DHT22;24338;48.280;10.970;2022-07-21T04:15:19;19.30;99.90
38568;DHT22;24338;48.280;10.970;2022-07-21T04:17:46;19.30;99.90
38568;DHT22;24338;48.280;10.970;2022-07-21T04:20:13;19.30;99.90
38568;DHT22;24338;48.280;10.970;2022-07-21T04:22:42;19.30;99.90
38568;DHT22;24338;48.280;10.970;2022-07-21T04:25:11;19.30;99.90
38568;DHT22;24338;48.280;10.970;2022-07-21T04:27:39;19.20;99.90
38568;DHT22;24338;48.280;10.970;2022-07-21T04:30:08;19.20;99.90
38568;DHT22;24338;48.280;10.970;2022-07-21T04:32:36;19.20;99.90
38568;DHT22;24338;48.280;10.970;2022-07-21T04:35:04;19.20;99.90
38568;DHT22;24338;48.280;10.970;2022-07-21T04:37:31;19.20;99.90
38568;DHT22;24338;48.280;10.970;2022-07-21T04:39:59;19.10;99.90
38568;DHT22;24338;48.280;10.970;2022-07-21T04:42:26;19.20;99.90
38568;DHT22;24338;48.280;10.970;2022-07-21T04:44:53;19.20;99.90
38568;DHT22;24338;48.280;10.970;2022-07-21T04:47:20;19.20;99.90
38568;DHT22;24338;48.280;10.970;2022-07-21T04:49:47;19.20;99.90
38568;DHT22;24338;48.280;10.970;2022-07-21T04:52:14;19.30;99.90
38568;DHT22;24338;48.280;10.970;2022-07-21T04:54:41;19.30;99.90
38568;DHT22;24338;48.280;10.970;2022-07-21T04:57:08;19.30;99.90
38568;DHT22;24338;48.280;10.970;2022-07-21T04:59:35;19.40;99.90
38568;DHT22;24338;48.280;10.970;2022-07-21T05:02:03;19.40;99.90
38568;DHT22;24338;48.280;10.970;2022-07-21T05:04:30;19.50;99.90
38568;DHT22;24338;48.280;10.970;2022-07-21T05:06:58;19.50;99.90
38568;DHT22;24338;48.280;10.970;2022-07-21T05:09:25;19.50;99.90
38568;DHT22;24338;48.280;10.970;2022-07-21T05:11:52;19.60;99.90
38568;DHT22;24338;48.280;10.970;2022-07-21T05:14:19;19.60;99.90
38568;DHT22;24338;48.280;10.970;2022-07-21T05:16:46;19.70;99.90
38568;DHT22;24338;48.280;10.970;2022-07-21T05:19:12;19.70;99.90
38568;DHT22;24338;48.280;10.970;2022-07-21T05:21:39;19.70;99.90
38568;DHT22;24338;48.280;10.970;2022-07-21T05:24:07;19.70;99.90
38568;DHT22;24338;48.280;10.970;2022-07-21T05:26:34;19.70;99.90
38568;DHT22;24338;48.280;10.970;2022-07-21T05:29:00;19.70;99.90
38568;DHT22;24338;48.280;10.970;2022-07-21T05:31:27;19.80;99.90
38568;DHT22;24338;48.280;10.970;2022-07-21T05:36:29;19.90;99.90
38568;DHT22;24338;48.280;10.970;2022-07-21T05:38:56;19.90;99.90
38568;DHT22;24338;48.280;10.970;2022-07-21T05:41:23;19.80;99.90
38568;DHT22;24338;48.280;10.970;2022-07-21T05:43:50;19.90;99.90
38568;DHT22;24338;48.280;10.970;2022-07-21T05:46:17;20.00;99.90
38568;DHT22;24338;48.280;10.970;2022-07-21T05:48:43;20.00;99.90
38568;DHT22;24338;48.280;10.970;2022-07-21T05:51:10;20.10;99.90
38568;DHT22;24338;48.280;10.970;2022-07-21T05:53:44;20.10;99.90
38568;DHT22;24338;48.280;10.970;2022-07-21T05:56:11;20.10;99.90
38568;DHT22;24338;48.280;10.970;2022-07-21T05:58:38;20.10;99.90
38568;DHT22;24338;48.280;10.970;2022-07-21T06:01:05;20.10;99.90
38568;DHT22;24338;48.280;10.970;2022-07-21T06:03:36;20.10;99.90
38568;DHT22;24338;48.280;10.970;2022-07-21T06:06:04;20.10;99.90
38568;DHT22;24338;48.280;10.970;2022-07-21T06:08:31;20.20;99.90
38568;DHT22;24338;48.280;10.970;2022-07-21T06:10:58;20.30;99.90
38568;DHT22;24338;48.280;10.970;2022-07-21T06:13:25;20.40;99.90
38568;DHT22;24338;48.280;10.970;2022-07-21T06:15:52;20.40;99.90
38568;DHT22;24338;48.280;10.970;2022-07-21T06:18:19;20.40;99.90
38568;DHT22;24338;48.280;10.970;2022-07-21T06:20:48;20.40;99.90
38568;DHT22;24338;48.280;10.970;2022-07-21T06:25:43;20.50;99.90
38568;DHT22;24338;48.280;10.970;2022-07-21T06:28:10;20.40;99.90
38568;DHT22;24338;48.280;10.970;2022-07-21T06:30:37;20.50;99.90
38568;DHT22;24338;48.280;10.970;2022-07-21T06:33:04;20.60;99.90
38568;DHT22;24338;48.280;10.970;2022-07-21T06:35:34;20.60;99.90
38568;DHT22;24338;48.280;10.970;2022-07-21T06:38:01;20.70;99.90
38568;DHT22;24338;48.280;10.970;2022-07-21T06:40:31;20.80;99.90
38568;DHT22;24338;48.280;10.970;2022-07-21T06:42:58;20.70;99.90
38568;DHT22;24338;48.280;10.970;2022-07-21T06:45:45;20.70;99.90
38568;DHT22;24338;48.280;10.970;2022-07-21T06:48:12;20.70;99.90
38568;DHT22;24338;48.280;10.970;2022-07-21T06:50:39;20.60;99.90
38568;DHT22;24338;48.280;10.970;2022-07-21T06:53:06;20.60;99.90
38568;DHT22;24338;48.280;10.970;2022-07-21T06:55:33;20.60;99.90
38568;DHT22;24338;48.280;10.970;2022-07-21T06:58:15;20.50;99.90
38568;DHT22;24338;48.280;10.970;2022-07-21T07:00:46;20.50;99.90
38568;DHT22;24338;48.280;10.970;2022-07-21T07:03:14;20.40;99.90
38568;DHT22;24338;48.280;10.970;2022-07-21T07:05:43;20.30;99.90
38568;DHT22;24338;48.280;10.970;2022-07-21T07:08:11;20.30;99.90
38568;DHT22;24338;48.280;10.970;2022-07-21T07:10:42;20.30;99.90
38568;DHT22;24338;48.280;10.970;2022-07-21T07:13:09;20.20;99.90
38568;DHT22;24338;48.280;10.970;2022-07-21T07:15:57;20.20;99.90
38568;DHT22;24338;48.280;10.970;2022-07-21T07:18:23;20.20;99.90
38568;DHT22;24338;48.280;10.970;2022-07-21T07:20:52;20.20;99.90
38568;DHT22;24338;48.280;10.970;2022-07-21T07:23:19;20.10;99.90
38568;DHT22;24338;48.280;10.970;2022-07-21T07:25:46;20.10;99.90
38568;DHT22;24338;48.280;10.970;2022-07-21T07:28:13;20.10;99.90
38568;DHT22;24338;48.280;10.970;2022-07-21T07:30:40;20.10;99.90
38568;DHT22;24338;48.280;10.970;2022-07-21T07:33:07;20.10;99.90
38568;DHT22;24338;48.280;10.970;2022-07-21T07:35:34;20.10;99.90
38568;DHT22;24338;48.280;10.970;2022-07-21T07:38:01;20.10;99.90
38568;DHT22;24338;48.280;10.970;2022-07-21T07:40:28;20.20;99.90
38568;DHT22;24338;48.280;10.970;2022-07-21T07:42:56;20.20;99.90
38568;DHT22;24338;48.280;10.970;2022-07-21T07:45:29;20.20;99.90
38568;DHT22;24338;48.280;10.970;2022-07-21T07:47:56;20.20;99.90
38568;DHT22;24338;48.280;10.970;2022-07-21T07:50:23;20.30;99.90
38568;DHT22;24338;48.280;10.970;2022-07-21T07:52:50;20.30;99.90
38568;DHT22;24338;48.280;10.970;2022-07-21T07:55:16;20.30;99.90
38568;DHT22;24338;48.280;10.970;2022-07-21T07:57:43;20.30;99.90
38568;DHT22;24338;48.280;10.970;2022-07-21T08:00:13;20.30;99.90
38568;DHT22;24338;48.280;10.970;2022-07-21T08:03:01;20.30;99.90
38568;DHT22;24338;48.280;10.970;2022-07-21T08:05:28;20.40;99.90
38568;DHT22;24338;48.280;10.970;2022-07-21T08:07:55;20.40;99.90
38568;DHT22;24338;48.280;10.970;2022-07-21T08:10:21;20.40;99.90
38568;DHT22;24338;48.280;10.970;2022-07-21T08:13:07;20.40;99.90
38568;DHT22;24338;48.280;10.970;2022-07-21T08:15:36;20.30;99.90
38568;DHT22;24338;48.280;10.970;2022-07-21T08:18:03;20.30;99.90
38568;DHT22;24338;48.280;10.970;2022-07-21T08:20:30;20.30;99.90
38568;DHT22;24338;48.280;10.970;2022-07-21T08:22:57;20.20;99.90
38568;DHT22;24338;48.280;10.970;2022-07-21T08:25:24;20.20;99.90
38568;DHT22;24338;48.280;10.970;2022-07-21T08:27:51;20.20;99.90
38568;DHT22;24338;48.280;10.970;2022-07-21T08:30:18;20.30;99.90
38568;DHT22;24338;48.280;10.970;2022-07-21T08:32:48;20.30;99.90
38568;DHT22;24338;48.280;10.970;2022-07-21T08:35:15;20.40;99.90
38568;DHT22;24338;48.280;10.970;2022-07-21T08:37:51;20.50;99.90
38568;DHT22;24338;48.280;10.970;2022-07-21T08:40:22;20.50;99.90
38568;DHT22;24338;48.280;10.970;2022-07-21T08:42:53;20.50;99.90
38568;DHT22;24338;48.280;10.970;2022-07-21T08:45:21;20.50;99.90
38568;DHT22;24338;48.280;10.970;2022-07-21T08:47:53;20.50;99.90
38568;DHT22;24338;48.280;10.970;2022-07-21T08:50:25;20.40;99.90
38568;DHT22;24338;48.280;10.970;2022-07-21T08:52:53;20.40;99.90
38568;DHT22;24338;48.280;10.970;2022-07-21T08:55:31;20.40;99.90
38568;DHT22;24338;48.280;10.970;2022-07-21T08:57:59;20.40;99.90
38568;DHT22;24338;48.280;10.970;2022-07-21T09:00:27;20.30;99.90
38568;DHT22;24338;48.280;10.970;2022-07-21T09:03:16;20.30;99.90
38568;DHT22;24338;48.280;10.970;2022-07-21T09:06:08;20.30;99.90
38568;DHT22;24338;48.280;10.970;2022-07-21T09:08:41;20.30;99.90
38568;DHT22;24338;48.280;10.970;2022-07-21T09:11:20;20.30;99.90
38568;DHT22;24338;48.280;10.970;2022-07-21T09:14:09;20.30;99.90
38568;DHT22;24338;48.280;10.970;2022-07-21T09:19:05;20.40;99.90
38568;DHT22;24338;48.280;10.970;2022-07-21T09:21:36;20.40;99.90
38568;DHT22;24338;48.280;10.970;2022-07-21T09:29:24;20.60;99.90
38568;DHT22;24338;48.280;10.970;2022-07-21T09:31:52;20.60;99.90
38568;DHT22;24338;48.280;10.970;2022-07-21T09:34:18;20.70;99.90
38568;DHT22;24338;48.280;10.970;2022-07-21T09:36:57;20.70;99.90
38568;DHT22;24338;48.280;10.970;2022-07-21T09:39:52;20.70;99.90
38568;DHT22;24338;48.280;10.970;2022-07-21T09:42:31;20.80;99.90
38568;DHT22;24338;48.280;10.970;2022-07-21T09:45:01;20.90;99.90
38568;DHT22;24338;48.280;10.970;2022-07-21T09:47:31;21.00;99.90
38568;DHT22;24338;48.280;10.970;2022-07-21T09:49:59;21.00;99.90
38568;DHT22;24338;48.280;10.970;2022-07-21T09:52:46;21.10;99.90
38568;DHT22;24338;48.280;10.970;2022-07-21T09:55:15;21.20;99.90
38568;DHT22;24338;48.280;10.970;2022-07-21T09:57:43;21.20;99.90
38568;DHT22;24338;48.280;10.970;2022-07-21T10:00:16;21.20;99.90
38568;DHT22;24338;48.280;10.970;2022-07-21T10:02:46;21.20;99.90
38568;DHT22;24338;48.280;10.970;2022-07-21T10:05:16;21.30;99.90
38568;DHT22;24338;48.280;10.970;2022-07-21T10:07:46;21.30;99.90
38568;DHT22;24338;48.280;10.970;2022-07-21T10:10:14;21.40;99.90
38568;DHT22;24338;48.280;10.970;2022-07-21T10:12:41;21.40;99.90
38568;DHT22;24338;48.280;10.970;2022-07-21T10:15:09;21.40;99.90
38568;DHT22;24338;48.280;10.970;2022-07-21T10:17:37;21.50;99.90
38568;DHT22;24338;48.280;10.970;2022-07-21T10:20:26;21.40;99.90
38568;DHT22;24338;48.280;10.970;2022-07-21T10:23:06;21.40;99.90
38568;DHT22;24338;48.280;10.970;2022-07-21T10:25:35;21.50;99.90
38568;DHT22;24338;48.280;10.970;2022-07-21T10:28:15;21.50;99.90
38568;DHT22;24338;48.280;10.970;2022-07-21T10:30:44;21.60;99.90
38568;DHT22;24338;48.280;10.970;2022-07-21T10:33:13;21.70;99.90
38568;DHT22;24338;48.280;10.970;2022-07-21T10:35:42;22.00;99.90
38568;DHT22;24338;48.280;10.970;2022-07-21T10:38:31;22.10;99.90
38568;DHT22;24338;48.280;10.970;2022-07-21T10:41:00;22.30;99.90
38568;DHT22;24338;48.280;10.970;2022-07-21T10:45:56;22.50;99.90
38568;DHT22;24338;48.280;10.970;2022-07-21T10:51:15;22.50;99.90
38568;DHT22;24338;48.280;10.970;2022-07-21T10:53:43;22.60;99.90
38568;DHT22;24338;48.280;10.970;2022-07-21T10:56:27;22.60;99.90
38568;DHT22;24338;48.280;10.970;2022-07-21T10:58:54;22.50;99.90
38568;DHT22;24338;48.280;10.970;2022-07-21T11:01:24;22.60;99.90
38568;DHT22;24338;48.280;10.970;2022-07-21T11:04:14;22.80;99.90
38568;DHT22;24338;48.280;10.970;2022-07-21T11:06:44;23.10;99.90
38568;DHT22;24338;48.280;10.970;2022-07-21T11:11:59;23.30;99.90
38568;DHT22;24338;48.280;10.970;2022-07-21T11:14:39;23.50;99.90
38568;DHT22;24338;48.280;10.970;2022-07-21T11:17:29;23.60;99.90
38568;DHT22;24338;48.280;10.970;2022-07-21T11:19:54;23.90;99.90
38568;DHT22;24338;48.280;10.970;2022-07-21T11:22:28;23.90;99.90
38568;DHT22;24338;48.280;10.970;2022-07-21T11:25:06;23.90;99.90
38568;DHT22;24338;48.280;10.970;2022-07-21T11:27:35;23.80;99.90
38568;DHT22;24338;48.280;10.970;2022-07-21T11:30:06;23.60;99.90
38568;DHT22;24338;48.280;10.970;2022-07-21T11:32:33;23.50;99.90
38568;DHT22;24338;48.280;10.970;2022-07-21T11:37:35;23.60;99.90
38568;DHT22;24338;48.280;10.970;2022-07-21T11:40:07;23.80;99.90
38568;DHT22;24338;48.280;10.970;2022-07-21T11:42:36;24.10;99.90
38568;DHT22;24338;48.280;10.970;2022-07-21T11:45:04;24.40;99.90
38568;DHT22;24338;48.280;10.970;2022-07-21T11:47:32;24.20;99.90
38568;DHT22;24338;48.280;10.970;2022-07-21T11:50:00;24.50;99.90
38568;DHT22;24338;48.280;10.970;2022-07-21T11:52:30;25.00;99.90
38568;DHT22;24338;48.280;10.970;2022-07-21T11:54:59;25.20;99.90
38568;DHT22;24338;48.280;10.970;2022-07-21T11:57:27;25.40;99.90
38568;DHT22;24338;48.280;10.970;2022-07-21T11:59:56;25.70;99.90
38568;DHT22;24338;48.280;10.970;2022-07-21T12:02:28;25.90;99.90
38568;DHT22;24338;48.280;10.970;2022-07-21T12:05:00;25.50;99.90
38568;DHT22;24338;48.280;10.970;2022-07-21T12:07:45;25.20;99.90
38568;DHT22;24338;48.280;10.970;2022-07-21T12:10:22;25.10;99.90
38568;DHT22;24338;48.280;10.970;2022-07-21T12:12:50;25.00;99.90
38568;DHT22;24338;48.280;10.970;2022-07-21T12:15:21;24.90;99.90
38568;DHT22;24338;48.280;10.970;2022-07-21T12:17:57;24.80;99.90
38568;DHT22;24338;48.280;10.970;2022-07-21T12:22:55;24.70;99.90
38568;DHT22;24338;48.280;10.970;2022-07-21T12:25:37;24.50;99.90
38568;DHT22;24338;48.280;10.970;2022-07-21T12:28:04;24.30;99.90
38568;DHT22;24338;48.280;10.970;2022-07-21T12:30:36;24.40;99.90
38568;DHT22;24338;48.280;10.970;2022-07-21T12:33:12;24.30;99.90
38568;DHT22;24338;48.280;10.970;2022-07-21T12:35:44;24.30;99.90
38568;DHT22;24338;48.280;10.970;2022-07-21T12:38:15;24.20;99.90
38568;DHT22;24338;48.280;10.970;2022-07-21T12:40:45;24.30;99.90
38568;DHT22;24338;48.280;10.970;2022-07-21T12:43:33;24.30;99.90
38568;DHT22;24338;48.280;10.970;2022-07-21T12:46:03;24.50;99.90
38568;DHT22;24338;48.280;10.970;2022-07-21T12:48:35;24.50;99.90
38568;DHT22;24338;48.280;10.970;2022-07-21T12:51:14;24.60;99.90
38568;DHT22;24338;48.280;10.970;2022-07-21T12:56:14;24.70;99.90
38568;DHT22;24338;48.280;10.970;2022-07-21T12:58:42;24.70;99.90
38568;DHT22;24338;48.280;10.970;2022-07-21T13:01:09;24.70;99.90
38568;DHT22;24338;48.280;10.970;2022-07-21T13:03:37;24.80;99.90
38568;DHT22;24338;48.280;10.970;2022-07-21T13:06:06;24.90;99.90
38568;DHT22;24338;48.280;10.970;2022-07-21T13:08:37;25.20;99.90
38568;DHT22;24338;48.280;10.970;2022-07-21T13:11:05;25.50;99.90
38568;DHT22;24338;48.280;10.970;2022-07-21T13:13:32;25.50;99.90
38568;DHT22;24338;48.280;10.970;2022-07-21T13:15:59;25.70;99.90
38568;DHT22;24338;48.280;10.970;2022-07-21T13:18:26;25.90;99.90
38568;DHT22;24338;48.280;10.970;2022-07-21T13:20:53;26.00;99.90
38568;DHT22;24338;48.280;10.970;2022-07-21T13:23:21;26.20;99.90
38568;DHT22;24338;48.280;10.970;2022-07-21T13:25:49;26.20;99.90
38568;DHT22;24338;48.280;10.970;2022-07-21T13:28:29;26.60;99.90
38568;DHT22;24338;48.280;10.970;2022-07-21T13:30:56;27.10;99.90
38568;DHT22;24338;48.280;10.970;2022-07-21T13:33:23;27.40;99.90
38568;DHT22;24338;48.280;10.970;2022-07-21T13:35:52;27.70;99.90
38568;DHT22;24338;48.280;10.970;2022-07-21T13:38:20;27.90;99.90
38568;DHT22;24338;48.280;10.970;2022-07-21T13:40:46;27.90;99.90
38568;DHT22;24338;48.280;10.970;2022-07-21T13:43:33;27.90;99.90
38568;DHT22;24338;48.280;10.970;2022-07-21T13:46:05;27.90;99.90
38568;DHT22;24338;48.280;10.970;2022-07-21T13:48:32;28.00;99.90
38568;DHT22;24338;48.280;10.970;2022-07-21T13:51:08;28.10;99.90
38568;DHT22;24338;48.280;10.970;2022-07-21T13:53:36;27.70;99.90
38568;DHT22;24338;48.280;10.970;2022-07-21T13:56:03;27.80;99.90
38568;DHT22;24338;48.280;10.970;2022-07-21T13:58:30;27.90;99.90
38568;DHT22;24338;48.280;10.970;2022-07-21T14:00:57;27.90;99.90
38568;DHT22;24338;48.280;10.970;2022-07-21T14:03:24;27.90;99.90
38568;DHT22;24338;48.280;10.970;2022-07-21T14:05:51;27.60;99.90
38568;DHT22;24338;48.280;10.970;2022-07-21T14:08:18;27.80;99.90
38568;DHT22;24338;48.280;10.970;2022-07-21T14:10:45;28.00;99.90
38568;DHT22;24338;48.280;10.970;2022-07-21T14:13:12;28.30;99.90
38568;DHT22;24338;48.280;10.970;2022-07-21T14:15:39;28.00;99.90
38568;DHT22;24338;48.280;10.970;2022-07-21T14:18:06;27.60;99.80
38568;DHT22;24338;48.280;10.970;2022-07-21T14:20:33;27.70;99.90
38568;DHT22;24338;48.280;10.970;2022-07-21T14:23:02;27.80;98.90
38568;DHT22;24338;48.280;10.970;2022-07-21T14:25:29;28.30;99.90
38568;DHT22;24338;48.280;10.970;2022-07-21T14:27:57;28.80;97.20
38568;DHT22;24338;48.280;10.970;2022-07-21T14:30:27;28.80;99.00
38568;DHT22;24338;48.280;10.970;2022-07-21T14:32:55;28.90;98.40
38568;DHT22;24338;48.280;10.970;2022-07-21T14:35:22;28.90;95.80
38568;DHT22;24338;48.280;10.970;2022-07-21T14:37:50;28.70;97.50
38568;DHT22;24338;48.280;10.970;2022-07-21T14:40:18;29.20;96.70
38568;DHT22;24338;48.280;10.970;2022-07-21T14:42:45;29.60;97.20
38568;DHT22;24338;48.280;10.970;2022-07-21T14:45:15;29.70;93.80
38568;DHT22;24338;48.280;10.970;2022-07-21T14:47:49;29.90;95.30
38568;DHT22;24338;48.280;10.970;2022-07-21T14:50:17;30.20;94.30
38568;DHT22;24338;48.280;10.970;2022-07-21T14:52:52;30.10;89.80
38568;DHT22;24338;48.280;10.970;2022-07-21T14:55:19;29.80;90.00
38568;DHT22;24338;48.280;10.970;2022-07-21T14:57:49;29.10;90.50
38568;DHT22;24338;48.280;10.970;2022-07-21T15:00:17;29.30;91.30
38568;DHT22;24338;48.280;10.970;2022-07-21T15:02:44;29.50;89.30
38568;DHT22;24338;48.280;10.970;2022-07-21T15:05:12;29.60;90.70
38568;DHT22;24338;48.280;10.970;2022-07-21T15:07:39;29.50;90.90
38568;DHT22;24338;48.280;10.970;2022-07-21T15:10:06;29.40;91.90
38568;DHT22;24338;48.280;10.970;2022-07-21T15:12:33;29.50;91.30
38568;DHT22;24338;48.280;10.970;2022-07-21T15:15:00;29.50;91.30
38568;DHT22;24338;48.280;10.970;2022-07-21T15:17:27;29.60;91.00
38568;DHT22;24338;48.280;10.970;2022-07-21T15:19:56;29.70;91.40
38568;DHT22;24338;48.280;10.970;2022-07-21T15:22:27;29.70;91.10
38568;DHT22;24338;48.280;10.970;2022-07-21T15:24:59;29.60;91.20
38568;DHT22;24338;48.280;10.970;2022-07-21T15:27:26;29.60;91.40
38568;DHT22;24338;48.280;10.970;2022-07-21T15:29:53;29.30;90.60
38568;DHT22;24338;48.280;10.970;2022-07-21T15:32:21;29.30;91.40
38568;DHT22;24338;48.280;10.970;2022-07-21T15:34:47;29.30;90.40
38568;DHT22;24338;48.280;10.970;2022-07-21T15:37:14;29.50;88.70
38568;DHT22;24338;48.280;10.970;2022-07-21T15:39:41;29.40;89.30
38568;DHT22;24338;48.280;10.970;2022-07-21T15:42:10;29.00;86.60
38568;DHT22;24338;48.280;10.970;2022-07-21T15:44:37;28.60;90.30
38568;DHT22;24338;48.280;10.970;2022-07-21T15:47:06;28.40;90.30
38568;DHT22;24338;48.280;10.970;2022-07-21T15:49:34;28.20;89.20
38568;DHT22;24338;48.280;10.970;2022-07-21T15:52:01;28.10;91.30
38568;DHT22;24338;48.280;10.970;2022-07-21T15:54:29;28.00;91.00
38568;DHT22;24338;48.280;10.970;2022-07-21T15:57:16;27.90;90.20